createdAt,value
2019-03-15T00:00:26.273Z,6.49
2019-03-15T00:05:47.706Z,6.44
2019-03-15T00:11:08.988Z,6.38
2019-03-15T00:16:30.218Z,6.38
2019-03-15T00:21:51.607Z,6.46
2019-03-15T00:27:12.631Z,6.33
2019-03-15T00:32:33.832Z,6.38
2019-03-15T00:37:55.056Z,6.28
2019-03-15T00:43:16.323Z,6.48
2019-03-15T00:48:37.692Z,6.46
2019-03-15T00:53:58.801Z,6.20
2019-03-15T00:59:20.066Z,6.42
2019-03-15T01:04:41.145Z,6.33
2019-03-15T01:10:02.753Z,6.15
2019-03-15T01:15:23.693Z,6.12
2019-03-15T01:20:46.296Z,6.06
2019-03-15T01:26:07.788Z,6.10
2019-03-15T01:31:28.757Z,5.98
2019-03-15T01:36:50.161Z,5.89
2019-03-15T01:42:11.081Z,6.04
2019-03-15T01:47:32.196Z,6.08
2019-03-15T01:52:53.319Z,5.90
2019-03-15T01:58:14.681Z,5.65
2019-03-15T02:03:35.623Z,5.54
2019-03-15T02:08:57.310Z,5.31
2019-03-15T02:14:18.602Z,5.26
2019-03-15T02:19:39.717Z,5.48
2019-03-15T02:25:01.018Z,5.36
2019-03-15T02:30:22.441Z,5.41
2019-03-15T02:35:43.717Z,5.44
2019-03-15T02:41:05.766Z,5.45
2019-03-15T02:46:26.929Z,5.65
2019-03-15T02:51:49.843Z,5.32
2019-03-15T02:57:11.120Z,4.98
2019-03-15T03:02:32.163Z,5.31
2019-03-15T03:07:53.297Z,5.23
2019-03-15T03:13:14.435Z,5.48
2019-03-15T03:18:35.443Z,5.32
2019-03-15T03:23:57.344Z,5.27
2019-03-15T03:29:20.014Z,5.48
2019-03-15T03:34:41.712Z,5.48
2019-03-15T03:40:03.232Z,5.58
2019-03-15T03:45:25.027Z,5.63
2019-03-15T03:50:46.431Z,5.68
2019-03-15T03:56:07.749Z,5.66
2019-03-15T04:01:28.650Z,5.64
2019-03-15T04:06:49.947Z,5.31
2019-03-15T04:12:11.155Z,5.25
2019-03-15T04:17:32.293Z,5.30
2019-03-15T04:22:55.405Z,5.23
2019-03-15T04:28:17.738Z,5.24
2019-03-15T04:33:38.878Z,5.35
2019-03-15T04:39:00.198Z,5.37
2019-03-15T04:44:21.479Z,5.24
2019-03-15T04:49:42.593Z,5.29
2019-03-15T04:55:03.838Z,5.34
2019-03-15T05:00:24.924Z,5.41
2019-03-15T05:05:46.042Z,5.41
2019-03-15T05:11:07.357Z,5.43
2019-03-15T05:16:28.716Z,5.43
2019-03-15T05:21:50.422Z,5.30
2019-03-15T05:27:11.454Z,5.32
2019-03-15T05:32:32.792Z,5.50
2019-03-15T05:37:53.801Z,5.49
2019-03-15T05:43:15.061Z,5.46
2019-03-15T05:48:36.194Z,5.52
2019-03-15T05:53:57.287Z,5.62
2019-03-15T05:59:18.296Z,5.89
2019-03-15T06:04:39.480Z,5.91
2019-03-15T06:10:00.816Z,6.03
2019-03-15T06:15:21.867Z,6.24
2019-03-15T06:20:43.112Z,6.43
2019-03-15T06:26:04.138Z,6.74
2019-03-15T06:31:25.423Z,6.92
2019-03-15T06:36:46.584Z,7.00
2019-03-15T06:42:07.669Z,7.07
2019-03-15T06:47:30.066Z,7.11
2019-03-15T06:52:51.667Z,7.38
2019-03-15T06:58:13.200Z,7.58
2019-03-15T07:03:34.464Z,7.75
2019-03-15T07:08:55.608Z,7.84
2019-03-15T07:14:17.860Z,7.55
2019-03-15T07:19:39.199Z,7.61
2019-03-15T07:25:00.341Z,7.77
2019-03-15T07:30:21.508Z,7.79
2019-03-15T07:35:42.810Z,7.66
2019-03-15T07:41:04.033Z,7.92
2019-03-15T07:46:25.149Z,8.02
2019-03-15T07:51:46.080Z,8.24
2019-03-15T07:57:07.532Z,8.21
2019-03-15T08:02:29.042Z,7.86
2019-03-15T08:07:50.248Z,7.96
2019-03-15T08:13:11.506Z,7.98
2019-03-15T08:18:32.880Z,8.15
2019-03-15T08:23:54.001Z,8.10
2019-03-15T08:29:14.931Z,7.98
2019-03-15T08:34:36.244Z,8.10
2019-03-15T08:39:57.543Z,8.46
2019-03-15T08:45:18.552Z,8.57
2019-03-15T08:50:39.983Z,8.83
2019-03-15T08:56:00.957Z,8.72
2019-03-15T09:01:23.879Z,8.68
2019-03-15T09:06:45.203Z,8.45
2019-03-15T09:12:06.439Z,8.97
2019-03-15T09:17:27.645Z,9.09
2019-03-15T09:22:48.757Z,9.53
2019-03-15T09:28:14.342Z,9.66
2019-03-15T09:33:35.494Z,9.99
2019-03-15T09:38:56.804Z,9.46
2019-03-15T09:44:18.131Z,9.21
2019-03-15T09:49:39.386Z,9.65
2019-03-15T09:55:00.733Z,9.78
2019-03-15T10:00:22.010Z,10.06
2019-03-15T10:05:43.229Z,9.91
2019-03-15T10:11:04.213Z,9.82
2019-03-15T10:16:25.507Z,9.67
2019-03-15T10:21:46.868Z,9.58
2019-03-15T10:27:07.792Z,9.82
2019-03-15T10:32:29.319Z,9.65
2019-03-15T10:37:50.363Z,10.11
2019-03-15T10:43:13.861Z,10.07
2019-03-15T10:48:34.951Z,10.01
2019-03-15T10:53:56.311Z,9.98
2019-03-15T10:59:17.439Z,9.86
2019-03-15T11:04:38.823Z,9.99
2019-03-15T11:09:59.928Z,10.35
2019-03-15T11:15:21.058Z,10.51
2019-03-15T11:20:42.591Z,10.37
2019-03-15T11:26:13.054Z,10.38
2019-03-15T11:31:26.613Z,10.51
2019-03-15T11:36:57.834Z,10.51
2019-03-15T11:42:10.834Z,10.58
2019-03-15T11:47:50.076Z,10.65
2019-03-15T11:52:55.635Z,10.40
2019-03-15T11:58:16.732Z,10.30
2019-03-15T12:03:52.202Z,10.27
2019-03-15T12:09:01.931Z,9.70
2019-03-15T12:14:23.004Z,9.67
2019-03-15T12:19:44.001Z,9.83
2019-03-15T12:25:05.696Z,10.12
2019-03-15T12:30:27.085Z,10.48
2019-03-15T12:35:47.930Z,10.70
2019-03-15T12:41:09.016Z,10.47
2019-03-15T12:46:29.978Z,10.52
2019-03-15T12:51:51.261Z,10.37
2019-03-15T12:57:12.419Z,10.62
2019-03-15T13:02:33.676Z,10.88
2019-03-15T13:07:54.746Z,10.89
2019-03-15T13:13:15.929Z,11.30
2019-03-15T13:18:37.335Z,11.14
2019-03-15T13:24:00.891Z,11.06
2019-03-15T13:29:21.865Z,10.83
2019-03-15T13:34:42.820Z,10.67
2019-03-15T13:40:04.589Z,10.67
2019-03-15T13:45:25.580Z,10.75
2019-03-15T13:50:46.852Z,10.96
2019-03-15T13:56:08.034Z,11.18
2019-03-15T14:01:29.027Z,11.27
2019-03-15T14:06:50.129Z,11.30
2019-03-15T14:12:11.354Z,11.28
2019-03-15T14:17:32.581Z,11.27
2019-03-15T14:22:54.479Z,11.24
2019-03-15T14:28:15.762Z,11.08
2019-03-15T14:33:36.931Z,11.15
2019-03-15T14:38:57.869Z,11.24
2019-03-15T14:44:18.949Z,10.92
2019-03-15T14:49:40.822Z,10.97
2019-03-15T14:55:02.060Z,10.80
2019-03-15T15:00:23.222Z,10.84
2019-03-15T15:05:47.163Z,10.87
2019-03-15T15:11:07.509Z,10.84
2019-03-15T15:16:28.813Z,10.59
2019-03-15T15:21:52.829Z,10.41
2019-03-15T15:27:13.051Z,10.23
2019-03-15T15:32:34.047Z,10.08
2019-03-15T15:37:55.353Z,10.04
2019-03-15T15:43:16.402Z,9.96
2019-03-15T15:48:37.727Z,9.95
2019-03-15T15:53:58.729Z,9.88
2019-03-15T15:59:20.063Z,9.90
2019-03-15T16:04:41.037Z,9.88
2019-03-15T16:10:02.214Z,9.85
2019-03-15T16:15:24.062Z,9.76
2019-03-15T16:20:46.362Z,9.71
2019-03-15T16:26:10.176Z,9.58
2019-03-15T16:31:36.073Z,9.50
2019-03-15T16:36:57.403Z,9.40
2019-03-15T16:42:18.682Z,9.35
2019-03-15T16:47:39.917Z,9.35
2019-03-15T16:53:01.031Z,9.25
2019-03-15T16:58:23.128Z,8.83
2019-03-15T17:03:44.365Z,8.46
2019-03-15T17:09:07.055Z,8.27
2019-03-15T17:14:28.013Z,8.18
2019-03-15T17:19:49.181Z,7.97
2019-03-15T17:25:10.429Z,7.86
2019-03-15T17:30:31.469Z,7.83
2019-03-15T17:35:52.556Z,7.82
2019-03-15T17:41:13.725Z,7.43
2019-03-15T17:46:35.081Z,7.10
2019-03-15T17:51:58.631Z,6.94
2019-03-15T17:57:19.606Z,6.64
2019-03-15T18:02:41.093Z,6.42
2019-03-15T18:08:02.468Z,6.32
2019-03-15T18:13:25.209Z,6.27
2019-03-15T18:18:46.254Z,6.17
2019-03-15T18:24:07.878Z,5.96
2019-03-15T18:29:29.037Z,5.76
2019-03-15T18:34:50.395Z,5.52
2019-03-15T18:40:19.475Z,5.46
2019-03-15T18:45:40.700Z,5.41
2019-03-15T18:51:02.172Z,5.41
2019-03-15T18:56:23.599Z,5.29
2019-03-15T19:01:45.679Z,5.11
2019-03-15T19:07:07.115Z,5.06
2019-03-15T19:12:28.180Z,5.04
2019-03-15T19:17:49.708Z,4.90
2019-03-15T19:23:11.262Z,4.79
2019-03-15T19:28:32.289Z,4.75
2019-03-15T19:33:53.644Z,4.77
2019-03-15T19:39:14.446Z,4.60
2019-03-15T19:44:35.746Z,4.47
2019-03-15T19:49:57.040Z,4.48
2019-03-15T19:55:18.281Z,4.57
2019-03-15T20:00:39.669Z,4.47
2019-03-15T20:06:00.697Z,4.41
2019-03-15T20:11:22.122Z,4.44
2019-03-15T20:16:43.414Z,4.38
2019-03-15T20:22:04.700Z,4.36
2019-03-15T20:27:26.201Z,4.32
2019-03-15T20:32:47.465Z,4.20
2019-03-15T20:38:09.159Z,4.09
2019-03-15T20:43:30.300Z,4.04
2019-03-15T20:48:52.033Z,3.98
2019-03-15T20:54:13.189Z,3.80
2019-03-15T20:59:34.279Z,3.74
2019-03-15T21:04:55.616Z,3.69
2019-03-15T21:10:17.051Z,3.55
2019-03-15T21:15:38.634Z,3.49
2019-03-15T21:20:59.904Z,3.38
2019-03-15T21:26:21.151Z,3.33
2019-03-15T21:31:42.166Z,3.36
2019-03-15T21:37:03.588Z,3.32
2019-03-15T21:42:24.500Z,3.21
2019-03-15T21:47:45.687Z,3.15
2019-03-15T21:53:06.893Z,3.22
2019-03-15T21:58:28.137Z,3.15
2019-03-15T22:03:50.818Z,3.09
2019-03-15T22:09:12.075Z,3.15
2019-03-15T22:14:33.351Z,3.00
2019-03-15T22:19:54.459Z,2.99
2019-03-15T22:25:15.556Z,2.92
2019-03-15T22:30:36.429Z,3.00
2019-03-15T22:35:57.677Z,2.99
2019-03-15T22:41:18.911Z,3.04
2019-03-15T22:46:40.037Z,3.02
2019-03-15T22:52:01.291Z,3.03
2019-03-15T22:57:22.517Z,3.18
2019-03-15T23:02:44.090Z,3.33
2019-03-15T23:08:05.355Z,3.37
2019-03-15T23:13:26.490Z,3.44
2019-03-15T23:18:47.629Z,3.51
2019-03-15T23:24:08.929Z,3.55
2019-03-15T23:29:30.225Z,3.65
2019-03-15T23:34:51.598Z,3.47
2019-03-15T23:40:12.753Z,3.22
2019-03-15T23:45:33.639Z,3.10
2019-03-15T23:50:55.039Z,3.10
2019-03-15T23:56:16.270Z,3.00
